Map

Track Data

SID SEASON NUMBER BASIN SUBBASIN NAME ISO_TIME NATURE LAT LON WMO_WIND WMO_PRES WMO_AGENCY TRACK_TYPE DIST2LAND LANDFALL IFLAG USA_AGENCY USA_ATCF_ID USA_LAT USA_LON USA_RECORD USA_STATUS USA_WIND USA_PRES USA_SSHS USA_R34_NE USA_R34_SE USA_R34_SW USA_R34_NW USA_R50_NE USA_R50_SE USA_R50_SW USA_R50_NW USA_R64_NE USA_R64_SE USA_R64_SW USA_R64_NW USA_POCI USA_ROCI USA_RMW USA_EYE TOKYO_LAT TOKYO_LON TOKYO_GRADE TOKYO_WIND TOKYO_PRES TOKYO_R50_DIR TOKYO_R50_LONG TOKYO_R50_SHORT TOKYO_R30_DIR TOKYO_R30_LONG TOKYO_R30_SHORT TOKYO_LAND CMA_LAT CMA_LON CMA_CAT CMA_WIND CMA_PRES HKO_LAT HKO_LON HKO_CAT HKO_WIND HKO_PRES NEWDELHI_LAT NEWDELHI_LON NEWDELHI_GRADE NEWDELHI_WIND NEWDELHI_PRES NEWDELHI_CI NEWDELHI_DP NEWDELHI_POCI REUNION_LAT REUNION_LON REUNION_TYPE REUNION_WIND REUNION_PRES REUNION_TNUM REUNION_CI REUNION_RMW REUNION_R34_NE REUNION_R34_SE REUNION_R34_SW REUNION_R34_NW REUNION_R50_NE REUNION_R50_SE REUNION_R50_SW REUNION_R50_NW REUNION_R64_NE REUNION_R64_SE REUNION_R64_SW REUNION_R64_NW BOM_LAT BOM_LON BOM_TYPE BOM_WIND BOM_PRES BOM_TNUM BOM_CI BOM_RMW BOM_R34_NE BOM_R34_SE BOM_R34_SW BOM_R34_NW BOM_R50_NE BOM_R50_SE BOM_R50_SW BOM_R50_NW BOM_R64_NE BOM_R64_SE BOM_R64_SW BOM_R64_NW BOM_ROCI BOM_POCI BOM_EYE BOM_POS_METHOD BOM_PRES_METHOD NADI_LAT NADI_LON NADI_CAT NADI_WIND NADI_PRES WELLINGTON_LAT WELLINGTON_LON WELLINGTON_WIND WELLINGTON_PRES DS824_LAT DS824_LON DS824_STAGE DS824_WIND DS824_PRES TD9636_LAT TD9636_LON TD9636_STAGE TD9636_WIND TD9636_PRES TD9635_LAT TD9635_LON TD9635_WIND TD9635_PRES TD9635_ROCI NEUMANN_LAT NEUMANN_LON NEUMANN_CLASS NEUMANN_WIND NEUMANN_PRES MLC_LAT MLC_LON MLC_CLASS MLC_WIND MLC_PRES USA_GUST BOM_GUST BOM_GUST_PER REUNION_GUST REUNION_GUST_PER USA_SEAHGT USA_SEARAD_NE USA_SEARAD_SE USA_SEARAD_SW USA_SEARAD_NW STORM_SPEED STORM_DIR
1960261N21123 1960 71 WP MM IRMA 1960-09-17 00:00:00 TS 21.0000 123.300 spur-other 267 231 __O___________ -1 21.0000 123.300 1 29 1000 11 343
1960261N21123 1960 71 WP MM IRMA 1960-09-17 03:00:00 TS 21.5325 123.120 spur-other 231 192 __P___________ -1 21.5575 123.133 1 29 1000 12 347
1960261N21123 1960 71 WP MM IRMA 1960-09-17 06:00:00 TS 22.2000 123.000 spur-other 192 153 __O___________ -1 22.2000 123.000 1 29 1000 15 353
1960261N21123 1960 71 WP MM IRMA 1960-09-17 09:00:00 TS 23.0026 122.927 spur-other 153 121 __P___________ -1 23.0026 122.927 1 29 1001 18 357
1960261N21123 1960 71 WP MM IRMA 1960-09-17 12:00:00 TS 24.0000 122.900 spur-other 115 80 __O___________ -1 24.0000 122.900 1 29 1002 22 357
1960261N21123 1960 71 WP MM IRMA 1960-09-17 15:00:00 TS 25.1973 122.820 spur-other 83 83 __P___________ -1 25.1973 122.820 1 29 1003 25 1
1960261N21123 1960 71 WP MM IRMA 1960-09-17 18:00:00 TS 26.5000 122.900 spur-other 190 170 __O___________ -1 26.5000 122.900 1 29 1004 26 9
1960261N21123 1960 71 WP MM IRMA 1960-09-17 21:00:00 TS 27.7871 123.272 spur-other 175 172 __P___________ -1 27.7871 123.272 1 33 1004 27 19
1960261N21123 1960 71 WP MM IRMA 1960-09-18 00:00:00 ET 29.0000 123.900 spur-other 185 184 __O___________ -1 29.0000 123.900 9 38 1004 26 29
1960261N21123 1960 71 WP MM IRMA 1960-09-18 03:00:00 ET 30.0676 124.690 spur-other 271 256 __P___________ -1 30.0676 124.690 9 38 1005 25 36
1960261N21123 1960 71 WP MM IRMA 1960-09-18 06:00:00 ET 31.0000 125.600 spur-other 254 156 __O___________ -1 31.0000 125.600 9 38 1006 24 42
1960261N21123 1960 71 WP MM IRMA 1960-09-18 09:00:00 ET 31.8453 126.538 spur-other 156 95 __P___________ -1 31.8453 126.538 9 33 1006 22 44
1960261N21123 1960 71 WP MM IRMA 1960-09-18 12:00:00 ET 32.6000 127.400 spur-other 95 90 __O___________ -1 32.6000 127.400 9 29 1006 19 40
1960261N21123 1960 71 WP MM IRMA 1960-09-18 15:00:00 ET 33.3057 128.004 spur-other 104 91 __P___________ -1 33.3057 128.004 9 29 1006 17 36
1960261N21123 1960 71 WP MM IRMA 1960-09-18 18:00:00 ET 34.0000 128.600 spur-other 91 43 __O___________ -1 34.0000 128.600 9 29 1006 18 39
1960261N21123 1960 71 WP MM IRMA 1960-09-18 21:00:00 ET 34.7253 129.369 spur-other 49 42 __P___________ -1 34.7253 129.369 9 29 1006 21 45
1960261N21123 1960 71 WP MM IRMA 1960-09-19 00:00:00 ET 35.5000 130.400 spur-other 87 87 __O___________ -1 35.5000 130.400 9 29 1006 25 51
1960261N21123 1960 71 WP MM IRMA 1960-09-19 03:00:00 ET 36.3194 131.768 spur-other 123 123 __P___________ -1 36.3194 131.768 9 29 1006 30 55
1960261N21123 1960 71 WP MM IRMA 1960-09-19 06:00:00 ET 37.2000 133.400 spur-other 189 176 __O___________ -1 37.2000 133.400 9 29 1006 32 55
1960261N21123 1960 71 WP MM IRMA 1960-09-19 09:00:00 ET 38.1290 135.057 spur-other 168 147 __P___________ -1 38.1290 135.057 9 29 1005 34 56
1960261N21123 1960 71 WP MM IRMA 1960-09-19 12:00:00 ET 39.1000 137.000 spur-other 189 40 __O___________ -1 39.1000 137.000 9 29 1004 40 60
1960261N21123 1960 71 WP MM IRMA 1960-09-19 15:00:00 ET 40.1301 139.462 spur-other 27 0 __P___________ -1 40.1301 139.462 9 29 1002 43 64
1960261N21123 1960 71 WP MM IRMA 1960-09-19 18:00:00 ET 41.0000 142.000 spur-other 50 50 __O___________ -1 41.0000 142.000 9 29 1000 38 68
1960261N21123 1960 71 WP MM IRMA 1960-09-19 21:00:00 ET 41.5425 144.151 spur-other 92 92 __P___________ -1 41.5425 144.151 9 29 999 31 73
1960261N21123 1960 71 WP MM IRMA 1960-09-20 00:00:00 ET 41.9000 146.000 spur-other 147 147 __O___________ -1 41.9000 146.000 9 29 998 26 75
1960261N21123 1960 71 WP MM IRMA 1960-09-20 03:00:00 ET 42.1998 147.564 spur-other 203 203 __P___________ -1 42.1998 147.564 9 996 24 75
1960261N21123 1960 71 WP MM IRMA 1960-09-20 06:00:00 ET 42.5000 149.100 spur-other 278 278 __O___________ -1 42.5000 149.100 9 994 27 75
1960261N21123 1960 71 WP MM IRMA 1960-09-20 09:00:00 ET 42.8877 151.056 spur-other 320 318 __P___________ -1 42.8877 151.056 9 992 30 74
1960261N21123 1960 71 WP MM IRMA 1960-09-20 12:00:00 ET 43.3000 153.000 spur-other 365 365 __O___________ -1 43.3000 153.000 9 990 27 72
1960261N21123 1960 71 WP MM IRMA 1960-09-20 15:00:00 ET 43.7028 154.577 spur-other 423 423 __P___________ -1 43.7028 154.577 9 989 23 70
1960261N21123 1960 71 WP MM IRMA 1960-09-20 18:00:00 ET 44.1000 156.000 spur-other 490 490 __O___________ -1 44.1000 156.000 9 988 22 69
1960261N21123 1960 71 WP MM IRMA 1960-09-20 21:00:00 ET 44.4922 157.442 spur-other 573 573 __P___________ -1 44.4922 157.442 9 988 22 71
1960261N21123 1960 71 WP MM IRMA 1960-09-21 00:00:00 ET 44.8000 158.900 spur-other 634 634 __O___________ -1 44.8000 158.900 9 988 22 78
1960261N21123 1960 71 WP MM IRMA 1960-09-21 03:00:00 ET 44.9362 160.446 spur-other 677 677 __P___________ -1 44.9362 160.446 9 989 22 85
1960261N21123 1960 71 WP MM IRMA 1960-09-21 06:00:00 ET 45.0000 162.000 spur-other 734 734 __O___________ -1 45.0000 162.000 9 990 21 86
1960261N21123 1960 71 WP MM IRMA 1960-09-21 09:00:00 ET 45.1020 163.433 spur-other 795 795 __P___________ -1 45.1020 163.433 9 990 21 85
1960261N21123 1960 71 WP MM IRMA 1960-09-21 12:00:00 ET 45.2000 165.000 spur-other 875 875 __O___________ -1 45.2000 165.000 9 990 24 86
1960261N21123 1960 71 WP MM IRMA 1960-09-21 15:00:00 ET 45.2704 166.897 spur-other 960 960 __P___________ -1 45.2704 166.897 9 990 28 88
1960261N21123 1960 71 WP MM IRMA 1960-09-21 18:00:00 ET 45.3000 169.000 spur-other 1071 __O___________ -1 45.3000 169.000 9 990 29 89

Digital Typhoon Data and Search

About IBTrACS Database

This database is a web-friendly format of International Best Track Archive for Climate Stewardship (IBTrACS), a global best track data archive curated by NOAA dating back to 1842.

Updated: 2021-10-21